Time;durP1;ratioP1;P1;durP2;ratioP2;P2;SDS_P1;SDS_P2;PMS_P1;PMS_P2;Temp;Humidity;BMP_temperature;BMP_pressure;BME280_temperature;BME280_humidity;BME280_pressure;Samples;Min_cycle;Max_cycle;Signal;HPM_P1;HPM_P2
2023/01/21 00:00:29;;;;;;;;;;;;;;;;;;1042922;28;19951;-77
2023/01/21 00:01:00;;;;;;;;;;;;;;;;;;1043251;28;19913;-76
2023/01/21 00:01:31;;;;;;;;;;;;;;;;;;1043192;28;19915;-76
2023/01/21 00:02:02;;;;;;;;;;;;;;;;;;1043493;28;19947;-77
2023/01/21 00:02:33;;;;;;;;;;;;;;;;;;1047551;28;19913;-76
2023/01/21 00:03:04;;;;;;;;;;;;;;;;;;1047679;28;19919;-76
2023/01/21 00:03:34;;;;;;;;;;;;;;;;;;1047658;28;20386;-76
2023/01/21 00:04:05;;;;;;;;;;;;;;;;;;1047571;28;19913;-76
2023/01/21 00:04:39;;;;;;;;;;;;;;;;;;1042952;28;20383;-77
2023/01/21 00:05:10;;;;;;;;;;;;;;;;;;1043262;28;19913;-77
2023/01/21 00:05:41;;;;;;;;;;;;;;;;;;1042985;28;19913;-76
2023/01/21 00:06:13;;;;;;;;;;;;;;;;;;1043134;28;19916;-76
2023/01/21 00:06:44;;;;;;;;;;;;;;;;;;1043024;28;19912;-77
2023/01/21 00:07:15;;;;;;;;;;;;;;;;;;1043363;28;19944;-75
2023/01/21 00:07:46;;;;;;;;;;;;;;;;;;1039347;28;19976;-77
2023/01/21 00:08:17;;;;;;;;;;;;;;;;;;1043308;28;20020;-77
2023/01/21 00:08:48;;;;;;;;;;;;;;;;;;1043173;28;19917;-76
2023/01/21 00:09:19;;;;;;;;;;;;;;;;;;1043104;28;20017;-77
2023/01/21 00:09:50;;;;;;;;;;;;;;;;;;1043070;28;19920;-77
2023/01/21 00:10:20;;;;;;;;;;;;;;;;;;1043167;28;19913;-77
2023/01/21 00:10:51;;;;;;;;;;;;;;;;;;1043190;28;20030;-76
2023/01/21 00:11:22;;;;;;;;;;;;;;;;;;1042870;28;20319;-76
2023/01/21 00:11:53;;;;;;;;;;;;;;;;;;1043364;28;19919;-77
2023/01/21 00:12:24;;;;;;;;;;;;;;;;;;1043204;28;19916;-77
2023/01/21 00:12:55;;;;;;;;;;;;;;;;;;1047720;28;20590;-76
2023/01/21 00:13:26;;;;;;;;;;;;;;;;;;1047367;28;19940;-76
2023/01/21 00:13:57;;;;;;;;;;;;;;;;;;1043255;28;20465;-77
2023/01/21 00:14:27;;;;;;;;;;;;;;;;;;1042859;28;19919;-76
2023/01/21 00:14:58;;;;;;;;;;;;;;;;;;1043320;28;19908;-76
2023/01/21 00:15:29;;;;;;;;;;;;;;;;;;1042994;28;20733;-77
2023/01/21 00:16:00;;;;;;;;;;;;;;;;;;1043238;28;19908;-77
2023/01/21 00:16:31;;;;;;;;;;;;;;;;;;1043047;28;19912;-77
2023/01/21 00:17:02;;;;;;;;;;;;;;;;;;1043113;28;19908;-77
2023/01/21 00:17:34;;;;;;;;;;;;;;;;;;1042885;28;20517;-77
2023/01/21 00:18:05;;;;;;;;;;;;;;;;;;1043237;28;19909;-77
2023/01/21 00:18:36;;;;;;;;;;;;;;;;;;1043119;28;19916;-77
2023/01/21 00:19:07;;;;;;;;;;;;;;;;;;1043827;28;19911;-75
2023/01/21 00:19:38;;;;;;;;;;;;;;;;;;1047459;28;20061;-76
2023/01/21 00:20:09;;;;;;;;;;;;;;;;;;1047658;28;19909;-76
2023/01/21 00:20:40;;;;;;;;;;;;;;;;;;1042711;28;19915;-76
2023/01/21 00:21:11;;;;;;;;;;;;;;;;;;1043244;28;19915;-77
2023/01/21 00:21:42;;;;;;;;;;;;;;;;;;1042812;28;19909;-77
2023/01/21 00:22:12;;;;;;;;;;;;;;;;;;1043193;28;20337;-77
2023/01/21 00:22:43;;;;;;;;;;;;;;;;;;1043120;28;19939;-77
2023/01/21 00:23:14;;;;;;;;;;;;;;;;;;1043327;28;20384;-77
2023/01/21 00:23:45;;;;;;;;;;;;;;;;;;1043208;28;19915;-77
2023/01/21 00:24:16;;;;;;;;;;;;;;;;;;1043303;28;19916;-77
2023/01/21 00:24:47;;;;;;;;;;;;;;;;;;1042984;28;19916;-76
2023/01/21 00:25:18;;;;;;;;;;;;;;;;;;1041008;28;20375;-77
2023/01/21 00:25:49;;;;;;;;;;;;;;;;;;1043065;28;19912;-77
2023/01/21 00:26:19;;;;;;;;;;;;;;;;;;1038835;28;19909;-76
2023/01/21 00:26:50;;;;;;;;;;;;;;;;;;1039011;28;19917;-76
2023/01/21 00:27:21;;;;;;;;;;;;;;;;;;1043304;28;19908;-76
2023/01/21 00:27:52;;;;;;;;;;;;;;;;;;1043137;28;19905;-76
2023/01/21 00:28:23;;;;;;;;;;;;;;;;;;1043399;28;20279;-78
2023/01/21 00:28:54;;;;;;;;;;;;;;;;;;1047527;28;19916;-76
2023/01/21 00:29:25;;;;;;;;;;;;;;;;;;1042872;28;19909;-78
2023/01/21 00:29:56;;;;;;;;;;;;;;;;;;1043196;28;19995;-79
2023/01/21 00:30:27;;;;;;;;;;;;;;;;;;1038718;28;19909;-77
2023/01/21 00:30:58;;;;;;;;;;;;;;;;;;1039033;28;20007;-78
2023/01/21 00:31:28;;;;;;;;;;;;;;;;;;1035001;28;20283;-77
2023/01/21 00:31:59;;;;;;;;;;;;;;;;;;1035508;28;20020;-77
2023/01/21 00:32:30;;;;;;;;;;;;;;;;;;1039176;28;20392;-78
2023/01/21 00:33:01;;;;;;;;;;;;;;;;;;1039423;28;19968;-77
2023/01/21 00:33:32;;;;;;;;;;;;;;;;;;1043441;28;19986;-78
2023/01/21 00:34:03;;;;;;;;;;;;;;;;;;1043116;28;19913;-78
2023/01/21 00:34:34;;;;;;;;;;;;;;;;;;1043133;28;19939;-77
2023/01/21 00:35:05;;;;;;;;;;;;;;;;;;1043222;28;19944;-77
2023/01/21 00:35:35;;;;;;;;;;;;;;;;;;1038607;28;19980;-78
2023/01/21 00:36:06;;;;;;;;;;;;;;;;;;1035088;28;19914;-78
2023/01/21 00:36:37;;;;;;;;;;;;;;;;;;1036601;28;20001;-77
2023/01/21 00:37:08;;;;;;;;;;;;;;;;;;1039178;28;19917;-77
2023/01/21 00:37:39;;;;;;;;;;;;;;;;;;1038652;28;19917;-79
2023/01/21 00:38:10;;;;;;;;;;;;;;;;;;1039095;28;20296;-77
2023/01/21 00:38:41;;;;;;;;;;;;;;;;;;1039062;28;19913;-78
2023/01/21 00:39:12;;;;;;;;;;;;;;;;;;1039044;28;19913;-78
2023/01/21 00:39:42;;;;;;;;;;;;;;;;;;1038609;28;19916;-77
2023/01/21 00:40:13;;;;;;;;;;;;;;;;;;1039204;28;19992;-77
2023/01/21 00:40:44;;;;;;;;;;;;;;;;;;1042111;28;19909;-78
2023/01/21 00:41:16;;;;;;;;;;;;;;;;;;1047415;28;19995;-77
2023/01/21 00:41:47;;;;;;;;;;;;;;;;;;1043773;28;20841;-77
2023/01/21 00:42:17;;;;;;;;;;;;;;;;;;1043661;28;20723;-77
2023/01/21 00:42:48;;;;;;;;;;;;;;;;;;1039720;28;19909;-76
2023/01/21 00:43:19;;;;;;;;;;;;;;;;;;1039876;28;19909;-78
2023/01/21 00:43:50;;;;;;;;;;;;;;;;;;1040475;28;19952;-77
2023/01/21 00:44:21;;;;;;;;;;;;;;;;;;1043859;28;19912;-77
2023/01/21 00:44:52;;;;;;;;;;;;;;;;;;1044112;28;20006;-77
2023/01/21 00:45:23;;;;;;;;;;;;;;;;;;1043948;28;20702;-76
2023/01/21 00:45:54;;;;;;;;;;;;;;;;;;1040404;28;20442;-77
2023/01/21 00:46:25;;;;;;;;;;;;;;;;;;1048291;28;19944;-76
2023/01/21 00:46:56;;;;;;;;;;;;;;;;;;1048286;28;19909;-77
2023/01/21 00:47:27;;;;;;;;;;;;;;;;;;1048346;28;19934;-77
2023/01/21 00:47:57;;;;;;;;;;;;;;;;;;1043719;28;19905;-77
2023/01/21 00:48:28;;;;;;;;;;;;;;;;;;1043981;28;20455;-77
2023/01/21 00:48:59;;;;;;;;;;;;;;;;;;1043848;28;19948;-77
2023/01/21 00:49:30;;;;;;;;;;;;;;;;;;1044019;28;20280;-77
2023/01/21 00:50:01;;;;;;;;;;;;;;;;;;1043503;28;19908;-77
2023/01/21 00:50:32;;;;;;;;;;;;;;;;;;1044020;28;19916;-76
2023/01/21 00:51:03;;;;;;;;;;;;;;;;;;1043778;28;19909;-76
2023/01/21 00:51:34;;;;;;;;;;;;;;;;;;1044030;28;19913;-76
2023/01/21 00:52:05;;;;;;;;;;;;;;;;;;1043492;28;19974;-76
2023/01/21 00:52:35;;;;;;;;;;;;;;;;;;1043971;28;20434;-77
2023/01/21 00:53:06;;;;;;;;;;;;;;;;;;1043792;28;19967;-77
2023/01/21 00:53:37;;;;;;;;;;;;;;;;;;1044044;28;19982;-76
2023/01/21 00:54:08;;;;;;;;;;;;;;;;;;1039717;28;20367;-77
2023/01/21 00:54:39;;;;;;;;;;;;;;;;;;1043916;28;19951;-77
2023/01/21 00:55:10;;;;;;;;;;;;;;;;;;1043631;28;19919;-77
2023/01/21 00:55:41;;;;;;;;;;;;;;;;;;1043874;28;19919;-77
2023/01/21 00:56:12;;;;;;;;;;;;;;;;;;1044040;28;19917;-76
2023/01/21 00:56:42;;;;;;;;;;;;;;;;;;1043950;28;19920;-77
2023/01/21 00:57:13;;;;;;;;;;;;;;;;;;1043851;28;20007;-77
2023/01/21 00:57:44;;;;;;;;;;;;;;;;;;1043709;28;19920;-75
2023/01/21 00:58:15;;;;;;;;;;;;;;;;;;1044195;28;19959;-75
2023/01/21 00:58:46;;;;;;;;;;;;;;;;;;1043828;28;19912;-76
2023/01/21 00:59:17;;;;;;;;;;;;;;;;;;1043765;28;20476;-76
2023/01/21 00:59:48;;;;;;;;;;;;;;;;;;1043721;28;20693;-76
2023/01/21 01:00:19;;;;;;;;;;;;;;;;;;1039739;28;19913;-77
2023/01/21 01:00:50;;;;;;;;;;;;;;;;;;1043716;28;19974;-77
2023/01/21 01:01:20;;;;;;;;;;;;;;;;;;1042748;28;19909;-76
2023/01/21 01:01:51;;;;;;;;;;;;;;;;;;1035744;28;20341;-76
2023/01/21 01:02:22;;;;;;;;;;;;;;;;;;1039489;28;20409;-77
2023/01/21 01:02:53;;;;;;;;;;;;;;;;;;1043088;28;20732;-76
2023/01/21 01:03:24;;;;;;;;;;;;;;;;;;1043833;28;20046;-77
2023/01/21 01:03:55;;;;;;;;;;;;;;;;;;1045711;28;19934;-76
2023/01/21 01:04:26;;;;;;;;;;;;;;;;;;1039448;28;19920;-76
2023/01/21 01:04:57;;;;;;;;;;;;;;;;;;1039850;28;20008;-76
2023/01/21 01:05:27;;;;;;;;;;;;;;;;;;1039351;28;20291;-76
2023/01/21 01:05:58;;;;;;;;;;;;;;;;;;1040180;28;19955;-77
2023/01/21 01:06:29;;;;;;;;;;;;;;;;;;1043288;28;20602;-76
2023/01/21 01:07:00;;;;;;;;;;;;;;;;;;1039316;28;19931;-76
2023/01/21 01:07:31;;;;;;;;;;;;;;;;;;1035436;28;19945;-77
2023/01/21 01:08:02;;;;;;;;;;;;;;;;;;1039308;28;20466;-77
2023/01/21 01:08:33;;;;;;;;;;;;;;;;;;1043758;28;19951;-77
2023/01/21 01:09:03;;;;;;;;;;;;;;;;;;1043807;28;20434;-76
2023/01/21 01:09:34;;;;;;;;;;;;;;;;;;1048076;28;19920;-76
2023/01/21 01:10:05;;;;;;;;;;;;;;;;;;1043412;28;19990;-76
2023/01/21 01:10:36;;;;;;;;;;;;;;;;;;1043622;28;19913;-76
2023/01/21 01:11:07;;;;;;;;;;;;;;;;;;1043357;28;20005;-77
2023/01/21 01:11:38;;;;;;;;;;;;;;;;;;1043559;28;20384;-76
2023/01/21 01:12:09;;;;;;;;;;;;;;;;;;1043520;28;20334;-77
2023/01/21 01:12:40;;;;;;;;;;;;;;;;;;1043630;28;19909;-77
2023/01/21 01:13:10;;;;;;;;;;;;;;;;;;1039531;28;19944;-76
2023/01/21 01:13:41;;;;;;;;;;;;;;;;;;1043647;28;20596;-76
2023/01/21 01:14:12;;;;;;;;;;;;;;;;;;1039301;28;20028;-76
2023/01/21 01:14:43;;;;;;;;;;;;;;;;;;1039271;28;20335;-77
2023/01/21 01:15:14;;;;;;;;;;;;;;;;;;1039506;28;19909;-76
2023/01/21 01:15:46;;;;;;;;;;;;;;;;;;1039658;28;19905;-76
2023/01/21 01:16:17;;;;;;;;;;;;;;;;;;1042908;28;19917;-76
2023/01/21 01:16:48;;;;;;;;;;;;;;;;;;1048225;28;19916;-76
2023/01/21 01:17:18;;;;;;;;;;;;;;;;;;1047884;28;20290;-76
2023/01/21 01:17:49;;;;;;;;;;;;;;;;;;1043580;28;19908;-76
2023/01/21 01:18:20;;;;;;;;;;;;;;;;;;1043347;28;19978;-76
2023/01/21 01:18:51;;;;;;;;;;;;;;;;;;1039633;28;19992;-76
2023/01/21 01:19:22;;;;;;;;;;;;;;;;;;1039296;28;19905;-77
2023/01/21 01:19:53;;;;;;;;;;;;;;;;;;1039138;28;19916;-76
2023/01/21 01:20:24;;;;;;;;;;;;;;;;;;1039222;28;19936;-77
2023/01/21 01:20:55;;;;;;;;;;;;;;;;;;1039898;28;19910;-76
2023/01/21 01:21:25;;;;;;;;;;;;;;;;;;1039349;28;20551;-77
2023/01/21 01:21:56;;;;;;;;;;;;;;;;;;1039570;28;19910;-76
2023/01/21 01:22:27;;;;;;;;;;;;;;;;;;1039176;28;19912;-77
2023/01/21 01:22:58;;;;;;;;;;;;;;;;;;1039686;28;19909;-76
2023/01/21 01:23:29;;;;;;;;;;;;;;;;;;1040485;28;19916;-77
2023/01/21 01:24:02;;;;;;;;;;;;;;;;;;1043867;28;19932;-77
2023/01/21 01:24:32;;;;;;;;;;;;;;;;;;1047947;28;19915;-78
2023/01/21 01:25:03;;;;;;;;;;;;;;;;;;1048168;28;19915;-76
2023/01/21 01:25:36;;;;;;;;;;;;;;;;;;1043946;28;19996;-76
2023/01/21 01:26:07;;;;;;;;;;;;;;;;;;1043411;28;19963;-77
2023/01/21 01:26:39;;;;;;;;;;;;;;;;;;1042908;28;20315;-77
2023/01/21 01:27:10;;;;;;;;;;;;;;;;;;1042899;28;20029;-75
2023/01/21 01:27:41;;;;;;;;;;;;;;;;;;1043396;28;19913;-77
2023/01/21 01:28:12;;;;;;;;;;;;;;;;;;1038988;28;20391;-76
2023/01/21 01:28:43;;;;;;;;;;;;;;;;;;1039314;28;19917;-77
2023/01/21 01:29:14;;;;;;;;;;;;;;;;;;1043565;28;19905;-76
2023/01/21 01:29:45;;;;;;;;;;;;;;;;;;1043430;28;19913;-76
2023/01/21 01:30:15;;;;;;;;;;;;;;;;;;1043335;28;20407;-77
2023/01/21 01:30:46;;;;;;;;;;;;;;;;;;1039327;28;19923;-76
2023/01/21 01:31:17;;;;;;;;;;;;;;;;;;1039710;28;19940;-76
2023/01/21 01:31:48;;;;;;;;;;;;;;;;;;1043787;28;19919;-76
2023/01/21 01:32:19;;;;;;;;;;;;;;;;;;1042649;28;19917;-77
2023/01/21 01:32:50;;;;;;;;;;;;;;;;;;1043962;28;20392;-76
2023/01/21 01:33:21;;;;;;;;;;;;;;;;;;1039034;28;20394;-77
2023/01/21 01:33:54;;;;;;;;;;;;;;;;;;1039451;28;19910;-76
2023/01/21 01:34:25;;;;;;;;;;;;;;;;;;1039695;28;20415;-76
2023/01/21 01:34:56;;;;;;;;;;;;;;;;;;1044292;28;20391;-77
2023/01/21 01:35:27;;;;;;;;;;;;;;;;;;1043547;28;19909;-76
2023/01/21 01:35:58;;;;;;;;;;;;;;;;;;1043776;28;20307;-76
2023/01/21 01:36:28;;;;;;;;;;;;;;;;;;1043562;28;19916;-76
2023/01/21 01:36:59;;;;;;;;;;;;;;;;;;1043917;28;20399;-77
2023/01/21 01:37:30;;;;;;;;;;;;;;;;;;1043739;28;19905;-76
2023/01/21 01:38:06;;;;;;;;;;;;;;;;;;1043764;28;19909;-75
2023/01/21 01:38:37;;;;;;;;;;;;;;;;;;1043726;28;19911;-76
2023/01/21 01:39:08;;;;;;;;;;;;;;;;;;1043644;28;19916;-77
2023/01/21 01:39:39;;;;;;;;;;;;;;;;;;1043928;28;20003;-77
2023/01/21 01:40:11;;;;;;;;;;;;;;;;;;1039046;28;20411;-77
2023/01/21 01:40:42;;;;;;;;;;;;;;;;;;1040833;28;20287;-75
2023/01/21 01:41:13;;;;;;;;;;;;;;;;;;1039619;28;19920;-77
2023/01/21 01:41:44;;;;;;;;;;;;;;;;;;1039020;28;20676;-76
2023/01/21 01:42:16;;;;;;;;;;;;;;;;;;1038253;28;19913;-77
2023/01/21 01:42:47;;;;;;;;;;;;;;;;;;1035541;28;20399;-76
2023/01/21 01:43:18;;;;;;;;;;;;;;;;;;1039471;28;19920;-76
2023/01/21 01:43:48;;;;;;;;;;;;;;;;;;1039327;28;19914;-76
2023/01/21 01:44:19;;;;;;;;;;;;;;;;;;1039809;28;20003;-77
2023/01/21 01:44:50;;;;;;;;;;;;;;;;;;1039562;28;19909;-76
2023/01/21 01:45:21;;;;;;;;;;;;;;;;;;1039873;28;19913;-76
2023/01/21 01:45:52;;;;;;;;;;;;;;;;;;1039174;28;20003;-76
2023/01/21 01:46:23;;;;;;;;;;;;;;;;;;1039827;28;19913;-76
2023/01/21 01:46:54;;;;;;;;;;;;;;;;;;1043489;28;19952;-76
2023/01/21 01:47:25;;;;;;;;;;;;;;;;;;1043894;28;19913;-77
2023/01/21 01:47:59;;;;;;;;;;;;;;;;;;1043636;28;20004;-76
2023/01/21 01:48:30;;;;;;;;;;;;;;;;;;1043766;28;19913;-77
2023/01/21 01:49:00;;;;;;;;;;;;;;;;;;1039419;28;19913;-76
2023/01/21 01:49:31;;;;;;;;;;;;;;;;;;1040368;28;19983;-76
2023/01/21 01:50:02;;;;;;;;;;;;;;;;;;1043533;28;19913;-76
2023/01/21 01:50:33;;;;;;;;;;;;;;;;;;1044119;28;20011;-76
2023/01/21 01:51:06;;;;;;;;;;;;;;;;;;1043940;28;20379;-76
2023/01/21 01:51:37;;;;;;;;;;;;;;;;;;1043848;28;19951;-76
2023/01/21 01:52:07;;;;;;;;;;;;;;;;;;1039142;28;19921;-77
2023/01/21 01:52:38;;;;;;;;;;;;;;;;;;1042524;28;20602;-77
2023/01/21 01:53:09;;;;;;;;;;;;;;;;;;1043716;28;19913;-76
2023/01/21 01:53:40;;;;;;;;;;;;;;;;;;1039949;28;20316;-76
2023/01/21 01:54:11;;;;;;;;;;;;;;;;;;1045835;28;19913;-76
2023/01/21 01:54:42;;;;;;;;;;;;;;;;;;1048206;28;19940;-76
2023/01/21 01:55:14;;;;;;;;;;;;;;;;;;1043667;28;19979;-76
2023/01/21 01:55:45;;;;;;;;;;;;;;;;;;1043793;28;20000;-76
2023/01/21 01:56:16;;;;;;;;;;;;;;;;;;1043795;28;19975;-76
2023/01/21 01:56:47;;;;;;;;;;;;;;;;;;1043698;28;20328;-76
2023/01/21 01:57:18;;;;;;;;;;;;;;;;;;1043698;28;19912;-76
2023/01/21 01:57:48;;;;;;;;;;;;;;;;;;1043626;28;20007;-76
2023/01/21 01:58:19;;;;;;;;;;;;;;;;;;1043935;28;19913;-76
2023/01/21 01:58:50;;;;;;;;;;;;;;;;;;1043838;28;19913;-76
2023/01/21 01:59:21;;;;;;;;;;;;;;;;;;1043523;28;19936;-76
2023/01/21 01:59:52;;;;;;;;;;;;;;;;;;1043832;28;20232;-76
2023/01/21 02:00:23;;;;;;;;;;;;;;;;;;1043611;28;19912;-75
2023/01/21 02:00:54;;;;;;;;;;;;;;;;;;1043631;28;19916;-76
2023/01/21 02:01:25;;;;;;;;;;;;;;;;;;1042254;28;19912;-76
2023/01/21 02:01:55;;;;;;;;;;;;;;;;;;1039713;28;20044;-76
2023/01/21 02:02:26;;;;;;;;;;;;;;;;;;1039710;28;19937;-76
2023/01/21 02:03:51;;;;;;;;;;;;;;;;;;1043522;28;19927;-76
2023/01/21 02:04:22;;;;;;;;;;;;;;;;;;1045473;28;19913;-76
2023/01/21 02:04:53;;;;;;;;;;;;;;;;;;1043370;28;19912;-76
2023/01/21 02:05:24;;;;;;;;;;;;;;;;;;1043580;28;20429;-76
2023/01/21 02:05:55;;;;;;;;;;;;;;;;;;1043355;28;19913;-75
2023/01/21 02:06:26;;;;;;;;;;;;;;;;;;1043514;28;20605;-76
2023/01/21 02:06:57;;;;;;;;;;;;;;;;;;1043669;28;20071;-75
2023/01/21 02:07:27;;;;;;;;;;;;;;;;;;1043959;28;19920;-75
2023/01/21 02:07:58;;;;;;;;;;;;;;;;;;1047913;28;19970;-76
2023/01/21 02:08:31;;;;;;;;;;;;;;;;;;1048370;28;19915;-75
2023/01/21 02:09:02;;;;;;;;;;;;;;;;;;1047920;28;19912;-75
2023/01/21 02:09:33;;;;;;;;;;;;;;;;;;1048135;28;19920;-76
2023/01/21 02:10:04;;;;;;;;;;;;;;;;;;1047979;28;19932;-75
2023/01/21 02:10:35;;;;;;;;;;;;;;;;;;1048300;28;19913;-76
2023/01/21 02:11:06;;;;;;;;;;;;;;;;;;1048068;28;19951;-75
2023/01/21 02:11:37;;;;;;;;;;;;;;;;;;1048305;28;19940;-75
2023/01/21 02:12:08;;;;;;;;;;;;;;;;;;1047996;28;20428;-75
2023/01/21 02:12:39;;;;;;;;;;;;;;;;;;1048323;28;20832;-77
2023/01/21 02:13:09;;;;;;;;;;;;;;;;;;1039503;28;19967;-76
2023/01/21 02:13:40;;;;;;;;;;;;;;;;;;1039666;28;20390;-75
2023/01/21 02:14:11;;;;;;;;;;;;;;;;;;1039472;28;20023;-75
2023/01/21 02:14:42;;;;;;;;;;;;;;;;;;1040492;28;19936;-75
2023/01/21 02:15:14;;;;;;;;;;;;;;;;;;1044053;28;19970;-77
2023/01/21 02:15:45;;;;;;;;;;;;;;;;;;1046373;28;19924;-74
2023/01/21 02:16:15;;;;;;;;;;;;;;;;;;1047565;28;19912;-74
2023/01/21 02:16:46;;;;;;;;;;;;;;;;;;1047718;28;19913;-74
2023/01/21 02:17:17;;;;;;;;;;;;;;;;;;1043629;28;19955;-77
2023/01/21 02:17:48;;;;;;;;;;;;;;;;;;1043482;28;19917;-75
2023/01/21 02:18:19;;;;;;;;;;;;;;;;;;1043439;28;19951;-77
2023/01/21 02:18:50;;;;;;;;;;;;;;;;;;1044005;28;19920;-75
2023/01/21 02:19:21;;;;;;;;;;;;;;;;;;1047484;28;20267;-75
2023/01/21 02:19:52;;;;;;;;;;;;;;;;;;1042796;28;19920;-75
2023/01/21 02:20:23;;;;;;;;;;;;;;;;;;1043540;28;19911;-76
2023/01/21 02:20:53;;;;;;;;;;;;;;;;;;1043819;28;20004;-76
2023/01/21 02:21:25;;;;;;;;;;;;;;;;;;1043153;28;19912;-76
2023/01/21 02:21:56;;;;;;;;;;;;;;;;;;1043206;28;19983;-77
2023/01/21 02:22:26;;;;;;;;;;;;;;;;;;1043371;28;19912;-77
2023/01/21 02:22:57;;;;;;;;;;;;;;;;;;1039580;28;19921;-76
2023/01/21 02:23:28;;;;;;;;;;;;;;;;;;1043159;28;20335;-76
2023/01/21 02:23:59;;;;;;;;;;;;;;;;;;1043619;28;20042;-76
2023/01/21 02:24:30;;;;;;;;;;;;;;;;;;1043314;28;20003;-76
2023/01/21 02:25:01;;;;;;;;;;;;;;;;;;1043631;28;19936;-75
2023/01/21 02:25:32;;;;;;;;;;;;;;;;;;1043272;28;20443;-76
2023/01/21 02:26:03;;;;;;;;;;;;;;;;;;1043654;28;19936;-76
2023/01/21 02:26:33;;;;;;;;;;;;;;;;;;1043351;28;20299;-76
2023/01/21 02:27:04;;;;;;;;;;;;;;;;;;1043395;28;19919;-76
2023/01/21 02:27:35;;;;;;;;;;;;;;;;;;1043489;28;19921;-76
2023/01/21 02:28:06;;;;;;;;;;;;;;;;;;1039386;28;20364;-76
2023/01/21 02:28:37;;;;;;;;;;;;;;;;;;1042126;28;19951;-76
2023/01/21 02:29:08;;;;;;;;;;;;;;;;;;1040002;28;20272;-75
2023/01/21 02:29:39;;;;;;;;;;;;;;;;;;1043318;28;19920;-76
2023/01/21 02:30:12;;;;;;;;;;;;;;;;;;1043408;28;20402;-77
2023/01/21 02:30:43;;;;;;;;;;;;;;;;;;1043345;28;19913;-76
2023/01/21 02:31:14;;;;;;;;;;;;;;;;;;1040007;28;19963;-76
2023/01/21 02:31:45;;;;;;;;;;;;;;;;;;1043370;28;20015;-76
2023/01/21 02:32:16;;;;;;;;;;;;;;;;;;1042757;28;19913;-76
2023/01/21 02:32:47;;;;;;;;;;;;;;;;;;1043514;28;20380;-76
2023/01/21 02:33:17;;;;;;;;;;;;;;;;;;1043509;28;20022;-75
2023/01/21 02:33:48;;;;;;;;;;;;;;;;;;1043272;28;19905;-76
2023/01/21 02:34:19;;;;;;;;;;;;;;;;;;1043378;28;20648;-76
2023/01/21 02:34:50;;;;;;;;;;;;;;;;;;1043580;28;19940;-77
2023/01/21 02:35:21;;;;;;;;;;;;;;;;;;1042961;28;19909;-76
2023/01/21 02:35:52;;;;;;;;;;;;;;;;;;1043498;28;19974;-75
2023/01/21 02:36:23;;;;;;;;;;;;;;;;;;1043133;28;19936;-76
2023/01/21 02:36:54;;;;;;;;;;;;;;;;;;1043383;28;19976;-75
2023/01/21 02:37:24;;;;;;;;;;;;;;;;;;1039176;28;20373;-76
2023/01/21 02:37:55;;;;;;;;;;;;;;;;;;1043774;28;19912;-76
2023/01/21 02:38:26;;;;;;;;;;;;;;;;;;1047640;28;19980;-75
2023/01/21 02:38:57;;;;;;;;;;;;;;;;;;1047943;28;19909;-77
2023/01/21 02:39:28;;;;;;;;;;;;;;;;;;1042962;28;19936;-77
2023/01/21 02:39:59;;;;;;;;;;;;;;;;;;1043466;28;19921;-76
2023/01/21 02:40:30;;;;;;;;;;;;;;;;;;1043324;28;19954;-76
2023/01/21 02:41:01;;;;;;;;;;;;;;;;;;1043702;28;19913;-76
2023/01/21 02:41:32;;;;;;;;;;;;;;;;;;1043501;28;19912;-76
2023/01/21 02:42:03;;;;;;;;;;;;;;;;;;1043866;28;19915;-76
2023/01/21 02:42:34;;;;;;;;;;;;;;;;;;1047787;28;19919;-76
2023/01/21 02:43:04;;;;;;;;;;;;;;;;;;1043599;28;20035;-76
2023/01/21 02:43:35;;;;;;;;;;;;;;;;;;1043389;28;19912;-76
2023/01/21 02:44:06;;;;;;;;;;;;;;;;;;1045693;28;20733;-76
2023/01/21 02:44:37;;;;;;;;;;;;;;;;;;1047704;28;19978;-75
2023/01/21 02:45:09;;;;;;;;;;;;;;;;;;1047874;28;19908;-75
2023/01/21 02:45:40;;;;;;;;;;;;;;;;;;1046335;28;19912;-77
2023/01/21 02:46:11;;;;;;;;;;;;;;;;;;1043599;28;19917;-75
2023/01/21 02:46:42;;;;;;;;;;;;;;;;;;1043477;28;20388;-76
2023/01/21 02:47:13;;;;;;;;;;;;;;;;;;1039464;28;19913;-75
2023/01/21 02:47:44;;;;;;;;;;;;;;;;;;1039697;28;19917;-76
2023/01/21 02:48:15;;;;;;;;;;;;;;;;;;1043611;28;20007;-76
2023/01/21 02:48:46;;;;;;;;;;;;;;;;;;1043090;28;19916;-76
2023/01/21 02:49:17;;;;;;;;;;;;;;;;;;1043449;28;19913;-75
2023/01/21 02:49:47;;;;;;;;;;;;;;;;;;1043724;28;20442;-76
2023/01/21 02:50:18;;;;;;;;;;;;;;;;;;1043515;28;19913;-76
2023/01/21 02:50:49;;;;;;;;;;;;;;;;;;1043332;28;20341;-76
2023/01/21 02:51:20;;;;;;;;;;;;;;;;;;1043625;28;19917;-77
2023/01/21 02:51:51;;;;;;;;;;;;;;;;;;1043549;28;19920;-76
2023/01/21 02:52:22;;;;;;;;;;;;;;;;;;1047204;28;20011;-75
2023/01/21 02:52:53;;;;;;;;;;;;;;;;;;1043922;28;19919;-76
2023/01/21 02:53:24;;;;;;;;;;;;;;;;;;1043410;28;19912;-76
2023/01/21 02:53:55;;;;;;;;;;;;;;;;;;1039248;28;19913;-75
2023/01/21 02:54:26;;;;;;;;;;;;;;;;;;1043169;28;19913;-75
2023/01/21 02:54:57;;;;;;;;;;;;;;;;;;1043242;28;19912;-76
2023/01/21 02:55:28;;;;;;;;;;;;;;;;;;1039490;28;19944;-75
2023/01/21 02:55:59;;;;;;;;;;;;;;;;;;1040202;28;19921;-77
2023/01/21 02:56:30;;;;;;;;;;;;;;;;;;1041221;28;19920;-75
2023/01/21 02:57:00;;;;;;;;;;;;;;;;;;1043500;28;20498;-75
2023/01/21 02:57:31;;;;;;;;;;;;;;;;;;1039321;28;20024;-75
2023/01/21 02:58:02;;;;;;;;;;;;;;;;;;1039413;28;20508;-75
2023/01/21 02:58:33;;;;;;;;;;;;;;;;;;1039227;28;19920;-75
2023/01/21 02:59:04;;;;;;;;;;;;;;;;;;1039471;28;19917;-76
2023/01/21 02:59:35;;;;;;;;;;;;;;;;;;1039331;28;20315;-76
2023/01/21 03:00:06;;;;;;;;;;;;;;;;;;1035466;28;19940;-75
2023/01/21 03:00:37;;;;;;;;;;;;;;;;;;1039341;28;20327;-76
2023/01/21 03:01:07;;;;;;;;;;;;;;;;;;1039368;28;19913;-76
2023/01/21 03:01:38;;;;;;;;;;;;;;;;;;1039578;28;19983;-75
2023/01/21 03:02:09;;;;;;;;;;;;;;;;;;1039696;28;19995;-76
2023/01/21 03:02:40;;;;;;;;;;;;;;;;;;1041718;28;19912;-76
2023/01/21 03:03:11;;;;;;;;;;;;;;;;;;1039560;28;19913;-76
2023/01/21 03:03:42;;;;;;;;;;;;;;;;;;1039064;28;20617;-76
2023/01/21 03:04:13;;;;;;;;;;;;;;;;;;1035407;28;19917;-76
2023/01/21 03:04:43;;;;;;;;;;;;;;;;;;1039222;28;20023;-76
2023/01/21 03:05:14;;;;;;;;;;;;;;;;;;1039402;28;19913;-77
2023/01/21 03:05:45;;;;;;;;;;;;;;;;;;1035339;28;19920;-76
2023/01/21 03:06:17;;;;;;;;;;;;;;;;;;1043025;28;19913;-76
2023/01/21 03:06:48;;;;;;;;;;;;;;;;;;1047701;28;19916;-75
2023/01/21 03:07:19;;;;;;;;;;;;;;;;;;1048010;28;19913;-75
2023/01/21 03:07:50;;;;;;;;;;;;;;;;;;1047824;28;19908;-75
2023/01/21 03:08:21;;;;;;;;;;;;;;;;;;1047822;28;20297;-76
2023/01/21 03:08:52;;;;;;;;;;;;;;;;;;1047885;28;19912;-75
2023/01/21 03:09:25;;;;;;;;;;;;;;;;;;1043361;28;19913;-76
2023/01/21 03:09:59;;;;;;;;;;;;;;;;;;1043460;28;19909;-75
2023/01/21 03:10:30;;;;;;;;;;;;;;;;;;1043552;28;19913;-74
2023/01/21 03:11:01;;;;;;;;;;;;;;;;;;1035129;28;19996;-77
2023/01/21 03:11:32;;;;;;;;;;;;;;;;;;1039479;28;20016;-75
2023/01/21 03:12:02;;;;;;;;;;;;;;;;;;1039117;28;20116;-76
2023/01/21 03:12:33;;;;;;;;;;;;;;;;;;1043496;28;20507;-75
2023/01/21 03:13:04;;;;;;;;;;;;;;;;;;1042155;28;19917;-76
2023/01/21 03:16:56;;;;;;;;;;;;;;;;;;1046684;28;20014;-76
2023/01/21 03:17:27;;;;;;;;;;;;;;;;;;1043457;28;19913;-74
2023/01/21 03:17:58;;;;;;;;;;;;;;;;;;1043358;28;19924;-75
2023/01/21 03:18:29;;;;;;;;;;;;;;;;;;1043279;28;19917;-75
2023/01/21 03:19:00;;;;;;;;;;;;;;;;;;1043673;28;19909;-76
2023/01/21 03:19:31;;;;;;;;;;;;;;;;;;1042987;28;19995;-76
2023/01/21 03:20:02;;;;;;;;;;;;;;;;;;1039343;28;19916;-76
2023/01/21 03:20:33;;;;;;;;;;;;;;;;;;1039265;28;20000;-75
2023/01/21 03:21:04;;;;;;;;;;;;;;;;;;1039648;28;19940;-76
2023/01/21 03:21:35;;;;;;;;;;;;;;;;;;1039445;28;19946;-75
2023/01/21 03:22:06;;;;;;;;;;;;;;;;;;1042959;28;19917;-76
2023/01/21 03:22:37;;;;;;;;;;;;;;;;;;1043433;28;19940;-75
2023/01/21 03:23:07;;;;;;;;;;;;;;;;;;1043475;28;19909;-75
2023/01/21 03:23:38;;;;;;;;;;;;;;;;;;1043300;28;20023;-75
2023/01/21 03:24:09;;;;;;;;;;;;;;;;;;1043752;28;19916;-76
2023/01/21 03:24:40;;;;;;;;;;;;;;;;;;1039155;28;19955;-76
2023/01/21 03:25:11;;;;;;;;;;;;;;;;;;1043654;28;19943;-76
2023/01/21 03:25:42;;;;;;;;;;;;;;;;;;1043126;28;19917;-75
2023/01/21 03:26:13;;;;;;;;;;;;;;;;;;1043482;28;20260;-76
2023/01/21 03:26:44;;;;;;;;;;;;;;;;;;1039134;28;19971;-75
2023/01/21 03:27:15;;;;;;;;;;;;;;;;;;1039204;28;19937;-75
2023/01/21 03:27:45;;;;;;;;;;;;;;;;;;1039133;28;19921;-75
2023/01/21 03:28:16;;;;;;;;;;;;;;;;;;1039623;28;19913;-75
2023/01/21 03:28:47;;;;;;;;;;;;;;;;;;1043231;28;19970;-75
2023/01/21 03:29:18;;;;;;;;;;;;;;;;;;1043537;28;20380;-75
2023/01/21 03:29:49;;;;;;;;;;;;;;;;;;1043627;28;19951;-75
2023/01/21 03:30:20;;;;;;;;;;;;;;;;;;1047616;28;19920;-76
2023/01/21 03:30:51;;;;;;;;;;;;;;;;;;1043256;28;20043;-75
2023/01/21 03:31:22;;;;;;;;;;;;;;;;;;1042499;28;20003;-76
2023/01/21 03:31:52;;;;;;;;;;;;;;;;;;1043022;28;20371;-76
2023/01/21 03:32:23;;;;;;;;;;;;;;;;;;1043213;28;19909;-75
2023/01/21 03:32:54;;;;;;;;;;;;;;;;;;1039202;28;19913;-76
2023/01/21 03:33:25;;;;;;;;;;;;;;;;;;1039183;28;19921;-75
2023/01/21 03:33:59;;;;;;;;;;;;;;;;;;1039612;28;19913;-75
2023/01/21 03:34:29;;;;;;;;;;;;;;;;;;1039415;28;19913;-75
2023/01/21 03:35:00;;;;;;;;;;;;;;;;;;1039086;28;19944;-74
2023/01/21 03:35:31;;;;;;;;;;;;;;;;;;1039800;28;19920;-75
2023/01/21 03:36:02;;;;;;;;;;;;;;;;;;1043371;28;19920;-76